German Valley, Iowa
Current Conditions -  °F | °C
As of 7:55 AM on Sunday 25 Jan 2015 (Local Time) from KAXA Reporting Station
Drizzle Drizzle  
Wind Chill: 20°   Ceiling: 700
Heat Index: 32°   Visibility: 5mi
Dew Point: 32°   Wind: 20mph
Humidity: 100%   Direction: 20°NNE
Pressure: 29.83"   Gusts: 26mph
Location:  43.2557°N, 94.0295°W
Report Text: KAXA 251355Z AUTO 02017G23KT 5SM -DZ OVC007 00/00 A2983 RMK AO2
Loading
Personal Weather Stations






























Interactive Weather Map New forecast layout! Learn more

10-Day Weather Forecast

Advertisements
Track Severe Weather on mobile